createdAt,value
2019-02-27T00:05:15.384Z,62.40
2019-02-27T00:08:04.162Z,62.10
2019-02-27T00:10:33.620Z,62.00
2019-02-27T00:13:24.711Z,62.20
2019-02-27T00:16:12.926Z,62.10
2019-02-27T00:19:01.695Z,62.20
2019-02-27T00:21:50.554Z,62.80
2019-02-27T00:24:39.350Z,63.00
2019-02-27T00:27:28.139Z,62.90
2019-02-27T00:30:16.907Z,63.10
2019-02-27T00:33:05.690Z,63.10
2019-02-27T00:35:54.468Z,63.20
2019-02-27T00:38:43.251Z,63.20
2019-02-27T00:41:32.056Z,63.10
2019-02-27T00:44:20.832Z,63.10
2019-02-27T00:47:09.624Z,62.90
2019-02-27T00:49:58.408Z,62.70
2019-02-27T00:52:50.876Z,62.70
2019-02-27T00:55:39.410Z,62.70
2019-02-27T00:58:28.239Z,62.60
2019-02-27T01:01:17.027Z,62.80
2019-02-27T01:04:05.798Z,62.90
2019-02-27T01:06:54.596Z,63.10
2019-02-27T01:09:43.375Z,62.80
2019-02-27T01:12:32.195Z,62.90
2019-02-27T01:15:20.981Z,63.10
2019-02-27T01:18:09.769Z,63.20
2019-02-27T01:20:58.541Z,63.00
2019-02-27T01:23:47.343Z,62.70
2019-02-27T01:26:36.131Z,62.90
2019-02-27T01:29:24.897Z,62.80
2019-02-27T01:32:13.706Z,62.90
2019-02-27T01:35:02.487Z,62.70
2019-02-27T01:37:51.282Z,63.40
2019-02-27T01:40:40.045Z,62.30
2019-02-27T01:43:28.827Z,63.40
2019-02-27T01:46:17.608Z,63.60
2019-02-27T01:49:06.391Z,63.50
2019-02-27T01:51:55.174Z,63.40
2019-02-27T01:54:46.036Z,63.60
2019-02-27T01:57:27.645Z,63.60
2019-02-27T02:03:25.937Z,63.70
2019-02-27T02:06:15.000Z,63.40
2019-02-27T02:09:42.465Z,63.30
2019-02-27T02:12:31.237Z,63.60
2019-02-27T02:16:00.887Z,63.40
2019-02-27T02:19:10.161Z,63.50
2019-02-27T02:22:19.846Z,63.20
2019-02-27T02:25:47.301Z,63.70
2019-02-27T02:28:56.998Z,64.00
2019-02-27T02:32:24.539Z,64.00
2019-02-27T02:35:34.282Z,64.00
2019-02-27T02:38:43.952Z,64.00
2019-02-27T02:42:11.406Z,63.90
2019-02-27T02:45:38.885Z,64.00
2019-02-27T02:48:53.242Z,64.40
2019-02-27T02:52:05.602Z,64.60
2019-02-27T02:55:13.633Z,64.60
2019-02-27T02:57:51.033Z,64.80
2019-02-27T03:00:50.663Z,64.90
2019-02-27T03:03:49.365Z,65.00
2019-02-27T03:06:48.972Z,65.00
2019-02-27T03:09:31.881Z,65.10
2019-02-27T03:12:17.868Z,65.30
2019-02-27T03:15:12.192Z,65.50
2019-02-27T03:17:53.742Z,65.80
2019-02-27T03:20:39.531Z,66.00
2019-02-27T03:23:42.263Z,66.20
2019-02-27T03:26:40.261Z,66.00
2019-02-27T03:29:42.392Z,66.30
2019-02-27T03:32:41.392Z,66.10
2019-02-27T03:35:29.529Z,66.30
2019-02-27T03:38:23.756Z,66.60
2019-02-27T03:41:09.297Z,66.60
2019-02-27T03:43:55.151Z,66.90
2019-02-27T03:46:37.979Z,67.00
2019-02-27T03:49:27.551Z,67.20
2019-02-27T03:52:24.222Z,67.50
2019-02-27T03:55:25.328Z,67.70
2019-02-27T03:58:30.645Z,67.90
2019-02-27T04:01:08.606Z,67.80
2019-02-27T04:04:48.238Z,67.70
2019-02-27T04:07:57.959Z,67.70
2019-02-27T04:10:46.750Z,67.60
2019-02-27T04:13:35.499Z,67.60
2019-02-27T04:16:28.944Z,67.60
2019-02-27T04:18:55.424Z,67.90
2019-02-27T04:21:44.237Z,68.10
2019-02-27T04:24:13.687Z,68.30
2019-02-27T04:26:43.145Z,68.40
2019-02-27T04:29:12.586Z,68.50
2019-02-27T04:31:42.041Z,68.90
2019-02-27T04:34:11.524Z,69.20
2019-02-27T04:36:40.994Z,69.50
2019-02-27T04:39:10.471Z,69.40
2019-02-27T04:41:40.055Z,69.50
2019-02-27T04:44:09.498Z,69.50
2019-02-27T04:46:39.000Z,69.30
2019-02-27T04:49:08.449Z,69.50
2019-02-27T04:51:37.929Z,69.30
2019-02-27T04:54:07.568Z,68.90
2019-02-27T04:56:37.061Z,68.90
2019-02-27T04:59:06.544Z,69.10
2019-02-27T05:01:36.768Z,68.80
2019-02-27T05:04:07.050Z,68.90
2019-02-27T05:06:36.514Z,69.10
2019-02-27T05:09:07.634Z,69.00
2019-02-27T05:11:37.172Z,69.10
2019-02-27T05:14:06.652Z,69.10
2019-02-27T05:16:36.344Z,69.00
2019-02-27T05:19:05.815Z,68.90
2019-02-27T05:21:35.250Z,69.00
2019-02-27T05:24:05.181Z,68.70
2019-02-27T05:26:35.899Z,69.10
2019-02-27T05:29:05.661Z,69.30
2019-02-27T05:31:35.190Z,69.30
2019-02-27T05:34:04.727Z,69.20
2019-02-27T05:36:34.191Z,69.40
2019-02-27T05:39:04.141Z,69.60
2019-02-27T05:41:33.772Z,70.80
2019-02-27T05:44:04.760Z,70.00
2019-02-27T05:46:35.707Z,69.20
2019-02-27T05:49:05.497Z,69.00
2019-02-27T05:51:37.020Z,69.00
2019-02-27T05:54:07.672Z,69.20
2019-02-27T05:56:37.327Z,69.20
2019-02-27T05:59:06.806Z,69.30
2019-02-27T06:01:38.193Z,69.40
2019-02-27T06:04:07.447Z,69.40
2019-02-27T06:06:36.906Z,69.30
2019-02-27T06:09:10.353Z,69.50
2019-02-27T06:11:39.463Z,69.60
2019-02-27T06:14:08.953Z,69.70
2019-02-27T06:16:40.675Z,70.00
2019-02-27T06:19:09.691Z,70.10
2019-02-27T06:21:39.118Z,70.30
2019-02-27T06:24:12.593Z,70.90
2019-02-27T06:26:40.556Z,70.40
2019-02-27T06:29:10.332Z,71.10
2019-02-27T06:31:39.873Z,71.20
2019-02-27T06:34:09.386Z,71.20
2019-02-27T06:36:41.848Z,71.10
2019-02-27T06:39:10.168Z,71.00
2019-02-27T06:41:40.079Z,70.80
2019-02-27T06:44:09.523Z,70.70
2019-02-27T06:46:38.978Z,71.10
2019-02-27T06:49:08.792Z,71.00
2019-02-27T06:51:38.241Z,71.10
2019-02-27T06:54:07.765Z,71.20
2019-02-27T06:56:37.339Z,70.90
2019-02-27T06:59:06.847Z,70.90
2019-02-27T07:01:36.286Z,70.70
2019-02-27T07:04:08.308Z,70.20
2019-02-27T07:06:37.911Z,69.90
2019-02-27T07:09:11.429Z,69.70
2019-02-27T07:11:39.228Z,68.80
2019-02-27T07:14:09.896Z,67.40
2019-02-27T07:16:39.341Z,66.80
2019-02-27T07:19:09.597Z,64.30
2019-02-27T07:21:39.140Z,62.10
2019-02-27T07:24:08.642Z,60.80
2019-02-27T07:26:38.118Z,59.40
2019-02-27T07:29:07.605Z,58.20
2019-02-27T07:31:37.194Z,57.00
2019-02-27T07:34:06.699Z,55.60
2019-02-27T07:36:38.565Z,55.00
2019-02-27T07:39:08.689Z,54.00
2019-02-27T07:41:38.560Z,53.40
2019-02-27T07:44:07.995Z,52.30
2019-02-27T07:46:37.538Z,52.20
2019-02-27T07:49:07.417Z,52.60
2019-02-27T07:51:36.895Z,52.30
2019-02-27T07:54:06.375Z,51.80
2019-02-27T07:56:35.906Z,50.90
2019-02-27T07:59:05.530Z,50.60
2019-02-27T08:01:43.503Z,50.00
2019-02-27T08:04:06.867Z,49.50
2019-02-27T08:06:37.822Z,48.60
2019-02-27T08:09:09.019Z,47.60
2019-02-27T08:11:38.487Z,47.20
2019-02-27T08:14:08.000Z,45.70
2019-02-27T08:16:37.485Z,44.80
2019-02-27T08:19:08.898Z,44.00
2019-02-27T08:21:38.135Z,43.30
2019-02-27T08:24:08.595Z,42.70
2019-02-27T08:26:38.080Z,41.00
2019-02-27T08:29:07.609Z,40.20
2019-02-27T08:31:37.142Z,39.50
2019-02-27T08:34:06.603Z,38.70
2019-02-27T08:36:36.130Z,39.00
2019-02-27T08:39:06.831Z,37.50
2019-02-27T08:41:36.328Z,36.50
2019-02-27T08:44:05.803Z,36.20
2019-02-27T08:46:37.107Z,35.10
2019-02-27T08:49:06.502Z,35.00
2019-02-27T08:51:35.996Z,35.10
2019-02-27T08:54:05.468Z,34.70
2019-02-27T08:56:35.047Z,35.30
2019-02-27T08:59:05.866Z,35.50
2019-02-27T09:01:37.778Z,34.30
2019-02-27T09:04:11.451Z,34.10
2019-02-27T09:06:38.216Z,33.40
2019-02-27T09:09:08.416Z,32.50
2019-02-27T09:11:40.059Z,31.80
2019-02-27T09:14:09.182Z,31.70
2019-02-27T09:16:44.579Z,31.00
2019-02-27T09:21:43.590Z,30.60
2019-02-27T09:24:13.054Z,30.50
2019-02-27T09:26:42.531Z,29.80
2019-02-27T09:29:12.003Z,29.90
2019-02-27T09:31:50.493Z,29.60
2019-02-27T09:34:13.769Z,29.20
2019-02-27T09:36:43.876Z,29.80
2019-02-27T09:39:13.557Z,28.90
2019-02-27T09:41:46.119Z,28.90
2019-02-27T09:44:14.235Z,28.70
2019-02-27T09:46:43.724Z,28.80
2019-02-27T09:49:13.283Z,29.50
2019-02-27T09:51:42.831Z,29.50
2019-02-27T09:54:13.293Z,28.30
2019-02-27T09:56:44.540Z,27.80
2019-02-27T09:59:16.747Z,27.60
2019-02-27T10:01:46.209Z,27.10
2019-02-27T10:04:16.618Z,27.10
2019-02-27T10:06:47.670Z,26.40
2019-02-27T10:09:18.432Z,25.70
2019-02-27T10:11:47.937Z,26.00
2019-02-27T10:14:17.439Z,25.60
2019-02-27T10:16:46.922Z,25.30
2019-02-27T10:19:17.186Z,25.70
2019-02-27T10:21:47.568Z,25.90
2019-02-27T10:24:17.209Z,26.40
2019-02-27T10:26:46.703Z,25.80
2019-02-27T10:29:16.181Z,26.10
2019-02-27T10:31:45.663Z,25.70
2019-02-27T10:34:17.601Z,25.00
2019-02-27T10:36:47.664Z,25.00
2019-02-27T10:39:17.652Z,25.60
2019-02-27T10:41:49.906Z,25.90
2019-02-27T10:44:18.365Z,25.70
2019-02-27T10:46:47.849Z,25.10
2019-02-27T10:49:21.448Z,24.80
2019-02-27T10:51:49.382Z,24.60
2019-02-27T10:54:18.851Z,24.70
2019-02-27T10:56:48.368Z,24.40
2019-02-27T10:59:19.640Z,25.20
2019-02-27T11:01:49.104Z,25.70
2019-02-27T11:04:18.569Z,25.50
2019-02-27T11:06:48.040Z,25.50
2019-02-27T11:09:23.936Z,26.50
2019-02-27T11:11:53.897Z,26.10
2019-02-27T11:14:25.039Z,25.00
2019-02-27T11:16:54.529Z,24.50
2019-02-27T11:19:24.077Z,24.90
2019-02-27T11:21:53.638Z,25.40
2019-02-27T11:24:24.706Z,24.30
2019-02-27T11:26:54.349Z,25.60
2019-02-27T11:29:24.426Z,24.70
2019-02-27T11:31:54.046Z,25.50
2019-02-27T11:34:23.704Z,24.80
2019-02-27T11:36:53.195Z,25.70
2019-02-27T11:39:22.646Z,25.40
2019-02-27T11:41:52.146Z,25.20
2019-02-27T11:44:21.636Z,25.50
2019-02-27T11:46:58.732Z,25.30
2019-02-27T11:49:22.359Z,24.60
2019-02-27T11:51:57.789Z,24.10
2019-02-27T11:54:27.269Z,24.10
2019-02-27T11:56:57.062Z,23.60
2019-02-27T11:59:26.622Z,24.40
2019-02-27T12:01:56.275Z,24.50
2019-02-27T12:04:25.727Z,24.50
2019-02-27T12:06:55.211Z,24.30
2019-02-27T12:09:24.754Z,24.80
2019-02-27T12:11:54.297Z,24.30
2019-02-27T12:14:23.761Z,24.40
2019-02-27T12:16:53.250Z,24.20
2019-02-27T12:19:22.801Z,24.50
2019-02-27T12:21:52.293Z,25.00
2019-02-27T12:24:21.775Z,25.10
2019-02-27T12:26:51.237Z,25.10
2019-02-27T12:29:20.832Z,25.30
2019-02-27T12:31:50.337Z,24.80
2019-02-27T12:34:19.910Z,24.90
2019-02-27T12:36:49.917Z,25.20
2019-02-27T12:39:20.594Z,25.70
2019-02-27T12:41:50.093Z,26.60
2019-02-27T12:44:19.549Z,26.10
2019-02-27T12:46:49.040Z,26.40
2019-02-27T12:49:20.025Z,25.50
2019-02-27T12:51:49.775Z,25.90
2019-02-27T12:54:19.231Z,24.90
2019-02-27T12:56:48.762Z,24.90
2019-02-27T12:59:18.218Z,25.40
2019-02-27T13:01:51.681Z,25.50
2019-02-27T13:04:20.086Z,26.00
2019-02-27T13:06:49.639Z,25.90
2019-02-27T13:09:20.065Z,25.50
2019-02-27T13:11:49.587Z,26.30
2019-02-27T13:14:19.076Z,25.40
2019-02-27T13:16:49.493Z,25.30
2019-02-27T13:19:19.831Z,26.40
2019-02-27T13:21:49.333Z,26.30
2019-02-27T13:24:18.833Z,25.70
2019-02-27T13:26:48.357Z,24.70
2019-02-27T13:29:20.591Z,26.40
2019-02-27T13:31:51.456Z,25.90
2019-02-27T13:34:21.215Z,26.70
2019-02-27T13:36:50.714Z,26.70
2019-02-27T13:39:20.185Z,26.10
2019-02-27T13:41:50.724Z,27.60
2019-02-27T13:44:20.213Z,27.30
2019-02-27T13:46:49.718Z,27.90
2019-02-27T13:49:19.227Z,27.60
2019-02-27T13:51:48.704Z,28.00
2019-02-27T13:54:18.178Z,27.70
2019-02-27T13:56:47.675Z,28.10
2019-02-27T13:59:17.142Z,27.10
2019-02-27T14:01:46.648Z,27.80
2019-02-27T14:04:16.186Z,27.90
2019-02-27T14:06:47.482Z,26.90
2019-02-27T14:09:18.962Z,27.10
2019-02-27T14:11:48.334Z,27.50
2019-02-27T14:14:18.622Z,36.80
2019-02-27T14:16:49.321Z,34.50
2019-02-27T14:19:21.363Z,36.10
2019-02-27T14:21:50.246Z,28.80
2019-02-27T14:24:20.661Z,27.50
2019-02-27T14:26:50.778Z,26.80
2019-02-27T14:29:20.237Z,28.30
2019-02-27T14:31:49.792Z,34.10
2019-02-27T14:34:19.224Z,28.80
2019-02-27T14:36:49.082Z,27.40
2019-02-27T14:39:18.791Z,28.60
2019-02-27T14:41:49.263Z,31.80
2019-02-27T14:44:19.493Z,29.30
2019-02-27T14:46:49.088Z,29.30
2019-02-27T14:49:18.642Z,29.60
2019-02-27T14:51:48.147Z,29.30
2019-02-27T14:54:36.027Z,28.40
2019-02-27T14:57:25.234Z,28.40
2019-02-27T15:00:40.013Z,27.90
2019-02-27T15:03:29.248Z,28.00
2019-02-27T15:06:19.270Z,28.70
2019-02-27T15:12:35.396Z,28.30
2019-02-27T15:15:45.096Z,28.50
2019-02-27T15:18:33.929Z,28.90
2019-02-27T15:21:24.452Z,30.00
2019-02-27T15:24:13.221Z,30.60
2019-02-27T15:26:54.830Z,30.00
2019-02-27T15:29:43.588Z,30.80
2019-02-27T15:32:32.391Z,30.90
2019-02-27T15:35:22.282Z,31.30
2019-02-27T15:38:12.428Z,32.10
2019-02-27T15:41:03.333Z,32.10
2019-02-27T15:43:59.976Z,32.20
2019-02-27T15:46:43.307Z,32.90
2019-02-27T15:49:32.114Z,33.60
2019-02-27T15:52:20.918Z,33.10
2019-02-27T15:55:34.249Z,33.70
2019-02-27T15:58:21.170Z,33.50
2019-02-27T16:01:09.961Z,35.00
2019-02-27T16:03:58.727Z,33.50
2019-02-27T16:06:47.559Z,33.70
2019-02-27T16:09:36.291Z,34.20
2019-02-27T16:12:25.959Z,34.20
2019-02-27T16:15:36.502Z,34.40
2019-02-27T16:18:25.316Z,34.90
2019-02-27T16:21:14.129Z,35.50
2019-02-27T16:24:02.910Z,35.70
2019-02-27T16:26:44.205Z,37.00
2019-02-27T16:29:32.972Z,36.90
2019-02-27T16:32:21.778Z,37.70
2019-02-27T16:35:29.579Z,37.70
2019-02-27T16:38:18.376Z,38.30
2019-02-27T16:41:07.159Z,39.40
2019-02-27T16:43:55.936Z,39.30
2019-02-27T16:46:44.895Z,39.50
2019-02-27T16:49:35.238Z,40.10
2019-02-27T16:52:24.041Z,41.30
2019-02-27T16:55:36.900Z,41.60
2019-02-27T16:58:24.215Z,41.80
2019-02-27T17:01:13.087Z,42.60
2019-02-27T17:04:01.958Z,42.60
2019-02-27T17:06:52.187Z,42.80
2019-02-27T17:09:43.881Z,43.40
2019-02-27T17:12:31.790Z,43.50
2019-02-27T17:15:20.544Z,44.10
2019-02-27T17:18:09.346Z,44.60
2019-02-27T17:20:58.119Z,45.20
2019-02-27T17:23:46.949Z,44.90
2019-02-27T17:26:39.065Z,45.10
2019-02-27T17:29:06.899Z,46.10
2019-02-27T17:31:56.486Z,46.50
2019-02-27T17:34:47.692Z,46.80
2019-02-27T17:37:37.399Z,47.10
2019-02-27T17:40:29.076Z,47.10
2019-02-27T17:43:17.761Z,47.20
2019-02-27T17:46:06.570Z,47.90
2019-02-27T17:48:55.850Z,48.10
2019-02-27T17:51:25.485Z,48.40
2019-02-27T17:53:55.065Z,48.50
2019-02-27T17:56:26.119Z,48.50
2019-02-27T18:02:09.650Z,49.10
2019-02-27T18:04:58.441Z,49.20
2019-02-27T18:07:47.270Z,49.80
2019-02-27T18:10:37.569Z,50.00
2019-02-27T18:13:26.598Z,50.60
2019-02-27T18:16:15.378Z,50.70
2019-02-27T18:19:04.203Z,51.10
2019-02-27T18:21:53.020Z,51.40
2019-02-27T18:24:34.990Z,51.40
2019-02-27T18:27:25.403Z,51.50
2019-02-27T18:29:55.629Z,51.80
2019-02-27T18:32:25.130Z,52.00
2019-02-27T18:34:55.250Z,52.30
2019-02-27T18:37:24.879Z,52.20
2019-02-27T18:39:54.315Z,52.80
2019-02-27T18:42:23.744Z,53.00
2019-02-27T18:44:53.222Z,53.00
2019-02-27T18:47:22.644Z,53.00
2019-02-27T18:49:52.948Z,53.20
2019-02-27T18:52:22.534Z,53.60
2019-02-27T18:54:54.739Z,54.20
2019-02-27T18:57:23.160Z,54.00
2019-02-27T18:59:52.656Z,54.30
2019-02-27T19:02:22.128Z,54.50
2019-02-27T19:04:51.577Z,54.70
2019-02-27T19:07:21.096Z,54.80
2019-02-27T19:09:50.619Z,55.00
2019-02-27T19:12:25.001Z,55.00
2019-02-27T19:14:51.252Z,55.20
2019-02-27T19:17:20.767Z,55.30
2019-02-27T19:19:50.203Z,55.10
2019-02-27T19:22:19.913Z,55.10
2019-02-27T19:24:50.336Z,55.30
2019-02-27T19:27:19.961Z,55.60
2019-02-27T19:29:49.415Z,55.80
2019-02-27T19:32:18.876Z,56.00
2019-02-27T19:34:48.319Z,56.00
2019-02-27T19:37:17.853Z,56.90
2019-02-27T19:39:47.285Z,56.50
2019-02-27T19:42:16.924Z,56.60
2019-02-27T19:44:46.360Z,56.70
2019-02-27T19:47:18.467Z,56.70
2019-02-27T19:49:46.977Z,56.70
2019-02-27T19:52:16.503Z,56.80
2019-02-27T19:54:45.944Z,56.60
2019-02-27T19:57:15.400Z,56.60
2019-02-27T19:59:44.838Z,56.70
2019-02-27T20:02:14.308Z,57.00
2019-02-27T20:04:46.016Z,56.90
2019-02-27T20:07:15.985Z,57.10
2019-02-27T20:09:45.439Z,57.10
2019-02-27T20:12:15.804Z,56.80
2019-02-27T20:14:46.065Z,56.20
2019-02-27T20:17:15.536Z,56.20
2019-02-27T20:19:44.973Z,55.90
2019-02-27T20:22:15.428Z,55.60
2019-02-27T20:24:46.530Z,55.70
2019-02-27T20:27:15.992Z,55.70
2019-02-27T20:29:45.447Z,55.70
2019-02-27T20:32:14.994Z,56.10
2019-02-27T20:34:45.912Z,55.20
2019-02-27T20:37:15.749Z,54.60
2019-02-27T20:39:45.245Z,54.40
2019-02-27T20:42:14.771Z,54.50
2019-02-27T20:44:44.208Z,54.00
2019-02-27T20:47:13.744Z,53.70
2019-02-27T20:49:44.743Z,53.70
2019-02-27T20:52:15.039Z,53.10
2019-02-27T20:54:45.070Z,53.40
2019-02-27T20:57:14.867Z,53.50
2019-02-27T20:59:44.309Z,53.30
2019-02-27T21:02:13.742Z,53.20
2019-02-27T21:04:43.215Z,53.50
2019-02-27T21:07:21.880Z,54.00
2019-02-27T21:09:45.143Z,54.50
2019-02-27T21:12:15.112Z,54.80
2019-02-27T21:14:44.680Z,55.30
2019-02-27T21:17:16.526Z,55.10
2019-02-27T21:19:45.305Z,55.30
2019-02-27T21:22:14.741Z,55.40
2019-02-27T21:24:44.221Z,55.70
2019-02-27T21:27:13.657Z,56.00
2019-02-27T21:29:43.551Z,55.60
2019-02-27T21:32:14.033Z,55.70
2019-02-27T21:34:43.501Z,55.80
2019-02-27T21:37:12.974Z,55.70
2019-02-27T21:39:42.545Z,56.00
2019-02-27T21:42:18.605Z,56.00
2019-02-27T21:44:45.212Z,55.80
2019-02-27T21:47:14.649Z,55.60
2019-02-27T21:49:44.101Z,55.50
2019-02-27T21:52:13.533Z,55.80
2019-02-27T21:54:42.978Z,55.80
2019-02-27T21:57:12.412Z,56.00
2019-02-27T21:59:41.863Z,55.70
2019-02-27T22:02:11.355Z,55.70
2019-02-27T22:04:41.163Z,55.70
2019-02-27T22:07:11.965Z,55.60
2019-02-27T22:09:44.614Z,55.50
2019-02-27T22:12:12.613Z,55.50
2019-02-27T22:14:42.056Z,55.40
2019-02-27T22:17:11.495Z,55.40
2019-02-27T22:19:40.941Z,55.30
2019-02-27T22:22:10.377Z,55.90
2019-02-27T22:24:39.829Z,55.20
2019-02-27T22:27:12.828Z,55.00
2019-02-27T22:29:40.435Z,55.10
2019-02-27T22:32:12.073Z,55.50
2019-02-27T22:34:41.054Z,55.00
2019-02-27T22:37:10.495Z,54.80
2019-02-27T22:39:39.942Z,55.00
2019-02-27T22:42:12.057Z,54.90
2019-02-27T22:44:40.549Z,55.20
2019-02-27T22:47:09.984Z,55.20
2019-02-27T22:49:39.433Z,55.30
2019-02-27T22:52:08.882Z,55.40
2019-02-27T22:54:38.322Z,55.20
2019-02-27T22:57:07.748Z,55.40
2019-02-27T22:59:38.062Z,56.40
2019-02-27T23:02:07.558Z,56.40
2019-02-27T23:04:36.997Z,56.50
2019-02-27T23:07:06.434Z,56.80
2019-02-27T23:09:36.895Z,56.40
2019-02-27T23:12:08.596Z,56.80
2019-02-27T23:14:38.039Z,56.50
2019-02-27T23:17:07.471Z,56.80
2019-02-27T23:19:36.896Z,56.80
2019-02-27T23:22:06.489Z,56.80
2019-02-27T23:24:35.946Z,56.60
2019-02-27T23:27:05.382Z,56.70
2019-02-27T23:29:39.708Z,56.70
2019-02-27T23:32:05.969Z,56.80
2019-02-27T23:34:35.433Z,57.00
2019-02-27T23:37:04.917Z,57.00
2019-02-27T23:39:34.385Z,56.70
2019-02-27T23:42:03.801Z,56.90
2019-02-27T23:44:33.231Z,56.80
2019-02-27T23:47:02.665Z,56.80
2019-02-27T23:49:32.099Z,57.10
2019-02-27T23:52:01.529Z,57.10
2019-02-27T23:54:35.468Z,57.40
2019-02-27T23:57:02.119Z,57.20
2019-02-27T23:59:33.008Z,57.10
